Terminal Aerodrome Forecast
Issued by NWS

Home | Current Version | Previous Version | Text Only | Print | Product List | Glossary On
Versions: 1 2 3 4 5 6 7 8 9 10 11 12 13 14 15 16 17 18 19
000
FTUS42 KTAE 280528
TAFVLD
TAF
KVLD 280528Z 2806/2906 VRB03KT P6SM SCT070
     FM280900 23002KT 4SM BR FEW020
     FM281200 VRB06KT P6SM SCT030
     FM281900 22006KT P6SM VCTS SCT040CB
     FM290100 20004KT P6SM SCT050=

USA.gov is the U.S. government's official web portal to all federal, state and local government web resources and services.